Terminal Aerodrome Forecast
Issued by NWS Albany, NY

Home | Current Version | Previous Version | Text Only | Print | Product List | Glossary On
Versions: 1 2 3 4 5 6 7 8 9 10 11 12 13 14 15 16 17 18
765
FTUS41 KALY 252206 AAC
TAFALB
TAF AMD
KALB 252206Z 2522/2618 19006KT P6SM -RA SCT050 BKN100 OVC140
     FM260000 30006KT P6SM FEW050 SCT250
     FM260400 VRB03KT 5SM BR SKC
     FM261300 29011KT P6SM FEW250=

USA.gov is the U.S. government's official web portal to all federal, state and local government web resources and services.